createdAt,value
2023-03-28T00:01:29.361Z,18.80
2023-03-28T00:06:32.802Z,17.30
2023-03-28T00:11:36.131Z,19.10
2023-03-28T00:17:02.115Z,21.00
2023-03-28T00:22:05.530Z,19.70
2023-03-28T00:27:09.091Z,17.90
2023-03-28T00:32:12.642Z,16.70
2023-03-28T00:37:17.533Z,19.60
2023-03-28T00:42:31.645Z,19.00
2023-03-28T00:48:13.944Z,19.40
2023-03-28T00:53:33.964Z,21.90
2023-03-28T00:58:42.409Z,20.00
2023-03-28T01:03:56.358Z,21.00
2023-03-28T01:09:06.639Z,20.20
2023-03-28T01:14:13.428Z,22.40
2023-03-28T01:19:59.188Z,17.40
2023-03-28T01:25:45.663Z,21.10
2023-03-28T01:31:18.008Z,17.20
2023-03-28T01:37:31.622Z,19.10
2023-03-28T01:43:08.307Z,17.80
2023-03-28T01:48:11.563Z,21.30
2023-03-28T01:54:26.804Z,20.40
2023-03-28T01:59:41.456Z,18.60
2023-03-28T02:05:25.045Z,22.60
2023-03-28T02:10:33.554Z,21.20
2023-03-28T02:15:57.990Z,21.40
2023-03-28T02:21:29.772Z,23.50
2023-03-28T02:26:55.249Z,22.70
2023-03-28T02:32:12.451Z,25.30
2023-03-28T02:37:49.001Z,19.80
2023-03-28T02:43:52.089Z,23.40
2023-03-28T02:49:49.599Z,23.20
2023-03-28T02:55:03.308Z,25.00
2023-03-28T03:00:19.662Z,21.40
2023-03-28T03:05:23.683Z,22.20
2023-03-28T03:10:29.690Z,24.40
2023-03-28T03:15:57.832Z,20.10
2023-03-28T03:21:02.062Z,22.10
2023-03-28T03:26:19.876Z,20.60
2023-03-28T03:31:49.712Z,22.90
2023-03-28T03:37:12.094Z,21.00
2023-03-28T03:42:15.984Z,18.90
2023-03-28T03:48:19.872Z,21.20
2023-03-28T03:53:28.472Z,19.70
2023-03-28T03:58:45.659Z,19.00
2023-03-28T04:03:49.402Z,19.80
2023-03-28T04:08:58.875Z,16.50
2023-03-28T04:14:25.344Z,16.20
2023-03-28T04:19:40.785Z,15.90
2023-03-28T04:24:45.099Z,15.80
2023-03-28T04:30:04.656Z,16.50
2023-03-28T04:35:31.090Z,14.40
2023-03-28T04:40:34.779Z,15.40
2023-03-28T04:46:01.557Z,16.30
2023-03-28T04:51:06.314Z,18.90
2023-03-28T04:56:16.357Z,19.10
2023-03-28T05:01:20.020Z,18.00
2023-03-28T05:07:15.133Z,17.10
2023-03-28T05:12:19.136Z,18.00
2023-03-28T05:18:12.370Z,17.40
2023-03-28T05:23:38.853Z,16.30
2023-03-28T05:28:58.433Z,17.80
2023-03-28T05:34:02.252Z,18.90
2023-03-28T05:39:46.275Z,15.30
2023-03-28T05:44:57.865Z,17.60
2023-03-28T05:50:25.191Z,18.20
2023-03-28T05:55:35.557Z,21.90
2023-03-28T06:00:39.594Z,24.10
2023-03-28T06:05:48.300Z,28.00
2023-03-28T06:11:13.373Z,24.10
2023-03-28T06:16:49.436Z,26.30
2023-03-28T06:21:54.034Z,26.60
2023-03-28T06:27:00.907Z,32.30
2023-03-28T06:32:28.123Z,32.90
2023-03-28T06:37:47.551Z,30.50
2023-03-28T06:43:35.827Z,30.30
2023-03-28T06:48:59.624Z,31.00
2023-03-28T06:54:03.332Z,28.20
2023-03-28T06:59:11.679Z,28.80
2023-03-28T07:04:17.851Z,27.20
2023-03-28T07:09:22.078Z,22.80
2023-03-28T07:14:33.780Z,30.00
2023-03-28T07:20:01.683Z,35.00
2023-03-28T07:25:26.824Z,24.80
2023-03-28T07:30:33.528Z,27.80
2023-03-28T07:35:40.530Z,25.30
2023-03-28T07:40:46.862Z,23.90
2023-03-28T07:45:50.964Z,22.70
2023-03-28T07:50:54.476Z,22.00
2023-03-28T07:55:58.301Z,20.20
2023-03-28T08:01:10.059Z,19.50
2023-03-28T08:06:32.343Z,19.30
2023-03-28T08:11:41.825Z,18.30
2023-03-28T08:16:48.217Z,18.20
2023-03-28T08:21:52.072Z,16.90
2023-03-28T08:26:58.136Z,14.40
2023-03-28T08:32:08.468Z,14.00
2023-03-28T08:37:29.108Z,12.90
2023-03-28T08:43:14.799Z,10.00
2023-03-28T08:48:37.517Z,9.80
2023-03-28T08:59:08.567Z,9.30
2023-03-28T09:04:35.718Z,11.30
2023-03-28T09:10:07.084Z,8.90
2023-03-28T09:16:24.633Z,7.70
2023-03-28T09:22:15.141Z,6.80
2023-03-28T09:28:02.262Z,9.80
2023-03-28T09:33:25.858Z,11.20
2023-03-28T09:38:46.506Z,10.50
2023-03-28T09:44:15.149Z,13.20
2023-03-28T09:50:13.223Z,16.80
2023-03-28T09:56:04.812Z,17.60
2023-03-28T10:01:38.981Z,19.30
2023-03-28T10:07:14.555Z,17.70
2023-03-28T10:12:27.419Z,19.40
2023-03-28T10:17:36.701Z,15.90
2023-03-28T10:23:04.375Z,11.80
2023-03-28T10:28:30.267Z,11.60
2023-03-28T10:34:01.848Z,8.50
2023-03-28T10:39:44.172Z,8.40
2023-03-28T10:46:11.112Z,8.40
2023-03-28T10:51:53.228Z,7.20
2023-03-28T10:58:09.604Z,7.00
2023-03-28T11:04:47.871Z,5.70
2023-03-28T11:10:06.694Z,6.10
2023-03-28T11:16:45.382Z,5.50
2023-03-28T11:22:08.016Z,5.60
2023-03-28T11:28:11.512Z,5.00
2023-03-28T11:34:37.368Z,4.00
2023-03-28T11:40:01.377Z,4.20
2023-03-28T11:45:50.349Z,4.80
2023-03-28T11:51:05.131Z,3.90
2023-03-28T11:57:10.950Z,4.40
2023-03-28T12:03:55.241Z,4.10
2023-03-28T12:09:14.191Z,4.20
2023-03-28T12:14:42.427Z,4.50
2023-03-28T12:19:56.609Z,4.30
2023-03-28T12:25:06.350Z,3.40
2023-03-28T12:30:22.481Z,6.10
2023-03-28T12:35:35.818Z,4.70
2023-03-28T12:40:54.929Z,6.50
2023-03-28T12:46:03.377Z,3.50
2023-03-28T12:52:17.554Z,4.50
2023-03-28T12:57:49.654Z,4.40
2023-03-28T13:03:48.481Z,3.90
2023-03-28T13:09:20.428Z,6.60
2023-03-28T13:14:44.087Z,4.00
2023-03-28T13:20:13.673Z,4.80
2023-03-28T13:25:29.429Z,9.80
2023-03-28T13:30:41.928Z,4.70
2023-03-28T13:36:10.585Z,4.20
2023-03-28T13:42:00.229Z,4.40
2023-03-28T13:47:13.441Z,6.10
2023-03-28T13:52:37.091Z,2.90
2023-03-28T13:57:44.007Z,3.40
2023-03-28T14:03:04.569Z,3.10
2023-03-28T14:08:17.568Z,3.30
2023-03-28T14:18:28.540Z,3.30
2023-03-28T14:23:41.084Z,3.90
2023-03-28T14:28:46.646Z,13.60
2023-03-28T14:33:50.933Z,9.30
2023-03-28T14:39:02.752Z,5.60
2023-03-28T14:44:07.318Z,8.30
2023-03-28T14:49:53.760Z,6.50
2023-03-28T14:55:01.819Z,10.00
2023-03-28T15:00:34.345Z,7.10
2023-03-28T15:05:38.551Z,12.70
2023-03-28T15:11:45.679Z,7.60
2023-03-28T15:16:54.847Z,6.50
2023-03-28T15:22:27.001Z,5.00
2023-03-28T15:28:36.309Z,8.50
2023-03-28T15:33:55.552Z,11.40
2023-03-28T15:39:18.717Z,6.20
2023-03-28T15:45:00.131Z,6.20
2023-03-28T15:50:44.201Z,6.00
2023-03-28T15:56:17.557Z,4.60
2023-03-28T16:01:23.400Z,7.70
2023-03-28T16:11:46.418Z,5.70
2023-03-28T16:17:28.873Z,9.00
2023-03-28T16:22:52.880Z,7.60
2023-03-28T16:27:56.868Z,12.80
2023-03-28T16:33:03.666Z,10.70
2023-03-28T16:38:07.637Z,12.70
2023-03-28T16:43:15.382Z,10.90
2023-03-28T16:48:19.110Z,14.20
2023-03-28T16:53:22.855Z,8.20
2023-03-28T17:05:00.742Z,6.80
2023-03-28T17:10:23.342Z,10.00
2023-03-28T17:15:26.872Z,7.60
2023-03-28T17:20:31.325Z,8.60
2023-03-28T17:25:39.180Z,9.00
2023-03-28T17:30:52.848Z,7.20
2023-03-28T17:35:57.101Z,8.20
2023-03-28T17:41:01.231Z,6.80
2023-03-28T17:46:16.410Z,12.90
2023-03-28T17:51:20.210Z,10.30
2023-03-28T17:56:24.358Z,15.40
2023-03-28T18:01:43.804Z,12.70
2023-03-28T18:06:47.890Z,16.30
2023-03-28T18:12:12.104Z,10.80
2023-03-28T18:18:13.082Z,10.20
2023-03-28T18:24:35.600Z,7.60
2023-03-28T18:29:52.714Z,13.80
2023-03-28T18:34:56.116Z,12.20
2023-03-28T18:40:00.404Z,10.90
2023-03-28T18:45:04.797Z,14.10
2023-03-28T18:50:15.296Z,15.20
2023-03-28T18:55:21.616Z,13.50
2023-03-28T19:00:47.074Z,10.60
2023-03-28T19:05:58.636Z,15.50
2023-03-28T19:11:11.940Z,13.20
2023-03-28T19:16:19.374Z,13.00
2023-03-28T19:21:43.540Z,9.90
2023-03-28T19:27:05.059Z,11.30
2023-03-28T19:32:11.927Z,15.40
2023-03-28T19:37:15.575Z,13.50
2023-03-28T19:42:50.559Z,11.50
2023-03-28T19:48:24.335Z,12.20
2023-03-28T19:53:45.188Z,10.90
2023-03-28T20:03:59.704Z,11.70
2023-03-28T20:09:03.692Z,14.70
2023-03-28T20:19:43.021Z,15.00
2023-03-28T20:24:48.862Z,10.90
2023-03-28T20:30:20.716Z,12.80
2023-03-28T20:36:44.278Z,10.20
2023-03-28T20:42:24.359Z,11.70
2023-03-28T20:47:28.820Z,8.90
2023-03-28T20:52:39.142Z,10.90
2023-03-28T20:57:42.562Z,10.70
2023-03-28T21:02:53.780Z,11.10
2023-03-28T21:07:59.320Z,10.70
2023-03-28T21:13:04.755Z,10.30
2023-03-28T21:18:09.729Z,10.30
2023-03-28T21:23:13.365Z,11.00
2023-03-28T21:28:16.852Z,8.60
2023-03-28T21:33:20.530Z,7.90
2023-03-28T21:38:24.313Z,6.20
2023-03-28T21:43:27.826Z,6.40
2023-03-28T21:48:34.207Z,6.50
2023-03-28T21:53:38.157Z,6.10
2023-03-28T21:58:41.687Z,7.60
2023-03-28T22:04:10.101Z,8.40
2023-03-28T22:09:34.167Z,16.40
2023-03-28T22:14:37.533Z,11.70
2023-03-28T22:19:41.731Z,9.00
2023-03-28T22:24:47.544Z,9.90
2023-03-28T22:30:11.095Z,10.60
2023-03-28T22:35:39.137Z,9.20
2023-03-28T22:40:51.117Z,10.50
2023-03-28T22:46:06.274Z,10.20
2023-03-28T22:51:13.152Z,9.70
2023-03-28T22:56:24.420Z,9.10
2023-03-28T23:01:31.206Z,16.90
2023-03-28T23:06:41.725Z,11.40
2023-03-28T23:11:45.564Z,13.90
2023-03-28T23:17:02.340Z,11.40
2023-03-28T23:22:26.545Z,13.90
2023-03-28T23:27:56.121Z,12.90
2023-03-28T23:33:17.017Z,14.20
2023-03-28T23:38:20.358Z,15.40
2023-03-28T23:43:24.724Z,16.00
2023-03-28T23:48:28.275Z,14.10
2023-03-28T23:53:44.908Z,14.30
2023-03-28T23:59:08.937Z,14.20
